sensor_id;sensor_type;location;lat;lon;timestamp;pressure;altitude;pressure_sealevel;temperature;humidity
48041;BME280;33815;48.386;11.738;2022-11-04T00:01:26;95518.34;;;7.96;100.00
48041;BME280;33815;48.386;11.738;2022-11-04T00:03:52;95521.75;;;8.05;100.00
48041;BME280;33815;48.386;11.738;2022-11-04T00:06:18;95519.97;;;8.38;100.00
48041;BME280;33815;48.386;11.738;2022-11-04T00:08:50;95520.34;;;8.52;100.00
48041;BME280;33815;48.386;11.738;2022-11-04T00:11:16;95529.91;;;8.76;100.00
48041;BME280;33815;48.386;11.738;2022-11-04T00:14:00;95538.28;;;9.03;100.00
48041;BME280;33815;48.386;11.738;2022-11-04T00:16:25;95540.25;;;9.09;100.00
48041;BME280;33815;48.386;11.738;2022-11-04T00:19:09;95557.25;;;9.12;100.00
48041;BME280;33815;48.386;11.738;2022-11-04T00:21:34;95556.13;;;9.14;100.00
48041;BME280;33815;48.386;11.738;2022-11-04T00:24:18;95561.13;;;9.32;100.00
48041;BME280;33815;48.386;11.738;2022-11-04T00:27:02;95569.25;;;9.29;100.00
48041;BME280;33815;48.386;11.738;2022-11-04T00:29:46;95570.41;;;9.26;100.00
48041;BME280;33815;48.386;11.738;2022-11-04T00:32:11;95570.22;;;9.36;100.00
48041;BME280;33815;48.386;11.738;2022-11-04T00:34:55;95580.59;;;9.45;100.00
48041;BME280;33815;48.386;11.738;2022-11-04T00:37:20;95575.84;;;9.48;100.00
48041;BME280;33815;48.386;11.738;2022-11-04T00:39:45;95578.63;;;9.47;100.00
48041;BME280;33815;48.386;11.738;2022-11-04T00:42:11;95577.13;;;9.52;100.00
48041;BME280;33815;48.386;11.738;2022-11-04T00:44:36;95592.13;;;9.42;100.00
48041;BME280;33815;48.386;11.738;2022-11-04T00:47:01;95585.31;;;9.41;100.00
48041;BME280;33815;48.386;11.738;2022-11-04T00:49:28;95575.06;;;9.48;100.00
48041;BME280;33815;48.386;11.738;2022-11-04T00:51:53;95579.63;;;9.46;100.00
48041;BME280;33815;48.386;11.738;2022-11-04T00:54:18;95580.59;;;9.45;100.00
48041;BME280;33815;48.386;11.738;2022-11-04T00:56:44;95594.09;;;9.40;100.00
48041;BME280;33815;48.386;11.738;2022-11-04T00:59:09;95595.25;;;9.29;100.00
48041;BME280;33815;48.386;11.738;2022-11-04T01:01:35;95610.06;;;9.20;100.00
48041;BME280;33815;48.386;11.738;2022-11-04T01:04:00;95607.94;;;9.16;100.00
48041;BME280;33815;48.386;11.738;2022-11-04T01:06:26;95618.03;;;9.19;100.00
48041;BME280;33815;48.386;11.738;2022-11-04T01:09:00;95619.03;;;9.09;100.00
48041;BME280;33815;48.386;11.738;2022-11-04T01:11:26;95608.63;;;8.93;100.00
48041;BME280;33815;48.386;11.738;2022-11-04T01:13:53;95612.38;;;8.99;100.00
48041;BME280;33815;48.386;11.738;2022-11-04T01:16:20;95633.81;;;9.01;100.00
48041;BME280;33815;48.386;11.738;2022-11-04T01:18:45;95649.25;;;8.94;100.00
48041;BME280;33815;48.386;11.738;2022-11-04T01:21:12;95650.88;;;8.95;100.00
48041;BME280;33815;48.386;11.738;2022-11-04T01:23:39;95651.50;;;8.97;100.00
48041;BME280;33815;48.386;11.738;2022-11-04T01:26:06;95651.50;;;8.97;100.00
48041;BME280;33815;48.386;11.738;2022-11-04T01:28:32;95654.78;;;8.83;100.00
48041;BME280;33815;48.386;11.738;2022-11-04T01:30:57;95659.00;;;8.76;100.00
48041;BME280;33815;48.386;11.738;2022-11-04T01:33:22;95636.72;;;8.65;100.00
48041;BME280;33815;48.386;11.738;2022-11-04T01:35:49;95658.66;;;8.62;100.00
48041;BME280;33815;48.386;11.738;2022-11-04T01:38:15;95658.97;;;8.59;100.00
48041;BME280;33815;48.386;11.738;2022-11-04T01:40:40;95656.69;;;8.48;100.00
48041;BME280;33815;48.386;11.738;2022-11-04T01:43:12;95648.50;;;8.43;100.00
48041;BME280;33815;48.386;11.738;2022-11-04T01:45:38;95657.75;;;8.37;100.00
48041;BME280;33815;48.386;11.738;2022-11-04T01:48:13;95651.13;;;8.43;100.00
48041;BME280;33815;48.386;11.738;2022-11-04T01:50:41;95666.66;;;8.34;100.00
48041;BME280;33815;48.386;11.738;2022-11-04T01:53:35;95654.19;;;8.30;100.00
48041;BME280;33815;48.386;11.738;2022-11-04T01:56:01;95654.19;;;8.30;100.00
48041;BME280;33815;48.386;11.738;2022-11-04T01:58:31;95651.06;;;8.26;100.00
48041;BME280;33815;48.386;11.738;2022-11-04T02:00:57;95656.41;;;8.16;100.00
48041;BME280;33815;48.386;11.738;2022-11-04T02:03:30;95634.81;;;8.07;100.00
48041;BME280;33815;48.386;11.738;2022-11-04T02:05:58;95641.31;;;8.12;100.00
48041;BME280;33815;48.386;11.738;2022-11-04T02:08:24;95634.31;;;8.04;100.00
48041;BME280;33815;48.386;11.738;2022-11-04T02:11:00;95634.94;;;7.98;100.00
48041;BME280;33815;48.386;11.738;2022-11-04T02:13:30;95638.69;;;8.03;100.00
48041;BME280;33815;48.386;11.738;2022-11-04T02:16:07;95628.44;;;7.94;100.00
48041;BME280;33815;48.386;11.738;2022-11-04T02:21:46;95628.56;;;7.84;100.00
48041;BME280;33815;48.386;11.738;2022-11-04T02:24:50;95627.56;;;7.77;100.00
48041;BME280;33815;48.386;11.738;2022-11-04T02:32:26;95631.28;;;7.74;100.00
48041;BME280;33815;48.386;11.738;2022-11-04T02:35:07;95638.91;;;7.76;100.00
48041;BME280;33815;48.386;11.738;2022-11-04T02:40:42;95647.34;;;7.78;100.00
48041;BME280;33815;48.386;11.738;2022-11-04T02:43:27;95640.88;;;7.82;100.00
48041;BME280;33815;48.386;11.738;2022-11-04T02:46:05;95645.41;;;7.80;100.00
48041;BME280;33815;48.386;11.738;2022-11-04T02:51:11;95640.09;;;7.81;100.00
48041;BME280;33815;48.386;11.738;2022-11-04T02:53:51;95645.59;;;7.86;100.00
48041;BME280;33815;48.386;11.738;2022-11-04T02:56:21;95647.22;;;7.87;100.00
48041;BME280;33815;48.386;11.738;2022-11-04T02:58:54;95652.94;;;7.91;100.00
48041;BME280;33815;48.386;11.738;2022-11-04T03:01:23;95648.38;;;7.93;100.00
48041;BME280;33815;48.386;11.738;2022-11-04T03:03:59;95646.72;;;7.84;100.00
48041;BME280;33815;48.386;11.738;2022-11-04T03:06:27;95649.84;;;7.87;100.00
48041;BME280;33815;48.386;11.738;2022-11-04T03:08:54;95643.63;;;7.80;100.00
48041;BME280;33815;48.386;11.738;2022-11-04T03:11:23;95630.03;;;7.86;100.00
48041;BME280;33815;48.386;11.738;2022-11-04T03:14:05;95637.69;;;7.96;100.00
48041;BME280;33815;48.386;11.738;2022-11-04T03:16:41;95642.75;;;8.06;100.00
48041;BME280;33815;48.386;11.738;2022-11-04T03:19:15;95641.09;;;7.88;100.00
48041;BME280;33815;48.386;11.738;2022-11-04T03:22:13;95638.66;;;7.87;100.00
48041;BME280;33815;48.386;11.738;2022-11-04T03:24:42;95636.50;;;7.82;100.00
48041;BME280;33815;48.386;11.738;2022-11-04T03:30:17;95638.91;;;7.76;100.00
48041;BME280;33815;48.386;11.738;2022-11-04T03:33:02;95639.06;;;7.74;100.00
48041;BME280;33815;48.386;11.738;2022-11-04T03:35:31;95628.69;;;7.66;100.00
48041;BME280;33815;48.386;11.738;2022-11-04T03:37:57;95639.53;;;7.69;100.00
48041;BME280;33815;48.386;11.738;2022-11-04T03:40:23;95649.03;;;7.87;100.00
48041;BME280;33815;48.386;11.738;2022-11-04T03:42:58;95646.03;;;7.74;100.00
48041;BME280;33815;48.386;11.738;2022-11-04T03:45:24;95655.44;;;7.75;100.00
48041;BME280;33815;48.386;11.738;2022-11-04T03:47:50;95673.66;;;7.83;100.00
48041;BME280;33815;48.386;11.738;2022-11-04T03:50:40;95664.59;;;7.87;100.00
48041;BME280;33815;48.386;11.738;2022-11-04T03:53:06;95655.63;;;7.73;100.00
48041;BME280;33815;48.386;11.738;2022-11-04T03:55:39;95655.13;;;7.78;100.00
48041;BME280;33815;48.386;11.738;2022-11-04T03:58:42;95644.38;;;7.64;100.00
48041;BME280;33815;48.386;11.738;2022-11-04T04:04:26;95659.81;;;7.74;100.00
48041;BME280;33815;48.386;11.738;2022-11-04T04:07:05;95654.13;;;7.70;100.00
48041;BME280;33815;48.386;11.738;2022-11-04T04:09:45;95658.97;;;7.65;100.00
48041;BME280;33815;48.386;11.738;2022-11-04T04:12:31;95654.94;;;7.71;100.00
48041;BME280;33815;48.386;11.738;2022-11-04T04:15:07;95656.22;;;7.67;100.00
48041;BME280;33815;48.386;11.738;2022-11-04T04:17:43;95640.66;;;7.67;100.00
48041;BME280;33815;48.386;11.738;2022-11-04T04:20:17;95637.38;;;7.57;100.00
48041;BME280;33815;48.386;11.738;2022-11-04T04:22:52;95632.19;;;7.57;100.00
48041;BME280;33815;48.386;11.738;2022-11-04T04:25:19;95616.13;;;7.53;100.00
48041;BME280;33815;48.386;11.738;2022-11-04T04:28:06;95624.47;;;7.38;100.00
48041;BME280;33815;48.386;11.738;2022-11-04T04:30:32;95629.97;;;7.35;100.00
48041;BME280;33815;48.386;11.738;2022-11-04T04:33:02;95627.31;;;7.27;100.00
48041;BME280;33815;48.386;11.738;2022-11-04T04:35:34;95634.31;;;7.27;100.00
48041;BME280;33815;48.386;11.738;2022-11-04T04:38:12;95629.22;;;7.17;100.00
48041;BME280;33815;48.386;11.738;2022-11-04T04:41:02;95627.91;;;7.13;100.00
48041;BME280;33815;48.386;11.738;2022-11-04T04:43:49;95639.75;;;7.15;100.00
48041;BME280;33815;48.386;11.738;2022-11-04T04:46:34;95635.06;;;7.19;100.00
48041;BME280;33815;48.386;11.738;2022-11-04T04:49:05;95632.72;;;7.08;100.00
48041;BME280;33815;48.386;11.738;2022-11-04T04:51:30;95602.41;;;7.08;100.00
48041;BME280;33815;48.386;11.738;2022-11-04T04:53:56;95592.56;;;7.12;100.00
48041;BME280;33815;48.386;11.738;2022-11-04T04:56:21;95585.50;;;7.22;100.00
48041;BME280;33815;48.386;11.738;2022-11-04T04:58:46;95597.44;;;7.15;100.00
48041;BME280;33815;48.386;11.738;2022-11-04T05:01:12;95603.69;;;7.30;100.00
48041;BME280;33815;48.386;11.738;2022-11-04T05:03:37;95621.44;;;7.17;100.00
48041;BME280;33815;48.386;11.738;2022-11-04T05:06:02;95635.84;;;7.19;100.00
48041;BME280;33815;48.386;11.738;2022-11-04T05:08:28;95642.19;;;7.17;100.00
48041;BME280;33815;48.386;11.738;2022-11-04T05:10:53;95647.84;;;7.20;100.00
48041;BME280;33815;48.386;11.738;2022-11-04T05:13:18;95657.47;;;7.28;100.00
48041;BME280;33815;48.386;11.738;2022-11-04T05:15:57;95653.56;;;7.24;100.00
48041;BME280;33815;48.386;11.738;2022-11-04T05:18:26;95644.31;;;7.22;100.00
48041;BME280;33815;48.386;11.738;2022-11-04T05:20:51;95639.34;;;7.28;100.00
48041;BME280;33815;48.386;11.738;2022-11-04T05:23:17;95653.56;;;7.24;100.00
48041;BME280;33815;48.386;11.738;2022-11-04T05:25:42;95651.91;;;7.23;100.00
48041;BME280;33815;48.386;11.738;2022-11-04T05:28:08;95658.91;;;7.23;100.00
48041;BME280;33815;48.386;11.738;2022-11-04T05:30:33;95670.22;;;7.22;100.00
48041;BME280;33815;48.386;11.738;2022-11-04T05:32:59;95660.47;;;7.15;100.00
48041;BME280;33815;48.386;11.738;2022-11-04T05:35:24;95659.78;;;7.13;100.00
48041;BME280;33815;48.386;11.738;2022-11-04T05:37:49;95651.16;;;7.05;100.00
48041;BME280;33815;48.386;11.738;2022-11-04T05:40:15;95651.91;;;6.97;100.00
48041;BME280;33815;48.386;11.738;2022-11-04T05:42:40;95659.31;;;6.92;100.00
48041;BME280;33815;48.386;11.738;2022-11-04T05:45:05;95648.44;;;6.88;100.00
48041;BME280;33815;48.386;11.738;2022-11-04T05:47:31;95646.97;;;6.85;100.00
48041;BME280;33815;48.386;11.738;2022-11-04T05:49:56;95647.72;;;6.78;100.00
48041;BME280;33815;48.386;11.738;2022-11-04T05:52:21;95661.63;;;6.77;100.00
48041;BME280;33815;48.386;11.738;2022-11-04T05:54:47;95665.63;;;6.71;100.00
48041;BME280;33815;48.386;11.738;2022-11-04T05:57:12;95669.84;;;6.72;100.00
48041;BME280;33815;48.386;11.738;2022-11-04T05:59:37;95676.72;;;6.63;100.00
48041;BME280;33815;48.386;11.738;2022-11-04T06:02:03;95684.34;;;6.65;100.00
48041;BME280;33815;48.386;11.738;2022-11-04T06:04:28;95675.09;;;6.62;100.00
48041;BME280;33815;48.386;11.738;2022-11-04T06:06:53;95682.19;;;6.60;100.00
48041;BME280;33815;48.386;11.738;2022-11-04T06:09:19;95677.31;;;6.57;100.00
48041;BME280;33815;48.386;11.738;2022-11-04T06:11:44;95681.00;;;6.55;100.00
48041;BME280;33815;48.386;11.738;2022-11-04T06:14:10;95700.47;;;6.59;100.00
48041;BME280;33815;48.386;11.738;2022-11-04T06:16:36;95692.25;;;6.63;100.00
48041;BME280;33815;48.386;11.738;2022-11-04T06:19:01;95705.78;;;6.57;100.00
48041;BME280;33815;48.386;11.738;2022-11-04T06:21:29;95711.03;;;6.65;100.00
48041;BME280;33815;48.386;11.738;2022-11-04T06:23:55;95704.31;;;6.73;100.00
48041;BME280;33815;48.386;11.738;2022-11-04T06:26:22;95717.09;;;6.56;100.00
48041;BME280;33815;48.386;11.738;2022-11-04T06:28:47;95733.59;;;6.55;100.00
48041;BME280;33815;48.386;11.738;2022-11-04T06:31:14;95723.53;;;6.34;100.00
48041;BME280;33815;48.386;11.738;2022-11-04T06:33:40;95714.03;;;6.25;100.00
48041;BME280;33815;48.386;11.738;2022-11-04T06:36:06;95716.63;;;6.25;100.00
48041;BME280;33815;48.386;11.738;2022-11-04T06:38:34;95721.41;;;6.20;100.00
48041;BME280;33815;48.386;11.738;2022-11-04T06:41:00;95706.06;;;6.08;100.00
48041;BME280;33815;48.386;11.738;2022-11-04T06:43:26;95707.41;;;6.12;100.00
48041;BME280;33815;48.386;11.738;2022-11-04T06:45:55;95699.56;;;6.04;100.00
48041;BME280;33815;48.386;11.738;2022-11-04T06:48:21;95682.28;;;6.05;100.00
48041;BME280;33815;48.386;11.738;2022-11-04T06:50:46;95688.53;;;6.02;100.00
48041;BME280;33815;48.386;11.738;2022-11-04T06:53:12;95696.44;;;6.00;100.00
48041;BME280;33815;48.386;11.738;2022-11-04T06:55:37;95688.94;;;5.97;100.00
48041;BME280;33815;48.386;11.738;2022-11-04T06:58:02;95687.44;;;6.05;100.00
48041;BME280;33815;48.386;11.738;2022-11-04T07:00:28;95689.50;;;6.01;100.00
48041;BME280;33815;48.386;11.738;2022-11-04T07:02:53;95681.97;;;6.08;100.00
48041;BME280;33815;48.386;11.738;2022-11-04T07:05:18;95680.25;;;5.98;100.00
48041;BME280;33815;48.386;11.738;2022-11-04T07:07:44;95677.66;;;5.98;100.00
48041;BME280;33815;48.386;11.738;2022-11-04T07:10:09;95673.44;;;5.97;100.00
48041;BME280;33815;48.386;11.738;2022-11-04T07:12:35;95653.16;;;5.93;100.00
48041;BME280;33815;48.386;11.738;2022-11-04T07:15:00;95660.50;;;5.97;100.00
48041;BME280;33815;48.386;11.738;2022-11-04T07:17:25;95663.63;;;6.01;100.00
48041;BME280;33815;48.386;11.738;2022-11-04T07:19:51;95666.06;;;6.03;100.00
48041;BME280;33815;48.386;11.738;2022-11-04T07:22:16;95675.47;;;6.04;100.00
48041;BME280;33815;48.386;11.738;2022-11-04T07:24:41;95684.94;;;6.13;100.00
48041;BME280;33815;48.386;11.738;2022-11-04T07:27:07;95691.44;;;6.17;100.00
48041;BME280;33815;48.386;11.738;2022-11-04T07:29:33;95687.50;;;6.13;100.00
48041;BME280;33815;48.386;11.738;2022-11-04T07:31:58;95705.22;;;6.17;100.00
48041;BME280;33815;48.386;11.738;2022-11-04T07:34:23;95701.03;;;6.34;100.00
48041;BME280;33815;48.386;11.738;2022-11-04T07:36:48;95709.69;;;6.43;100.00
48041;BME280;33815;48.386;11.738;2022-11-04T07:39:14;95712.09;;;6.27;100.00
48041;BME280;33815;48.386;11.738;2022-11-04T07:41:40;95712.94;;;6.27;100.00
48041;BME280;33815;48.386;11.738;2022-11-04T07:44:05;95716.16;;;6.29;100.00
48041;BME280;33815;48.386;11.738;2022-11-04T07:46:31;95723.84;;;6.21;100.00
48041;BME280;33815;48.386;11.738;2022-11-04T07:48:57;95740.19;;;6.22;100.00
48041;BME280;33815;48.386;11.738;2022-11-04T07:51:23;95759.50;;;6.27;100.00
48041;BME280;33815;48.386;11.738;2022-11-04T07:53:49;95755.88;;;6.38;100.00
48041;BME280;33815;48.386;11.738;2022-11-04T07:56:15;95747.91;;;6.31;100.00
48041;BME280;33815;48.386;11.738;2022-11-04T07:58:40;95741.50;;;6.36;100.00
48041;BME280;33815;48.386;11.738;2022-11-04T08:01:14;95743.78;;;6.39;100.00
48041;BME280;33815;48.386;11.738;2022-11-04T08:03:40;95748.00;;;6.40;100.00
48041;BME280;33815;48.386;11.738;2022-11-04T08:06:08;95753.25;;;6.48;100.00
48041;BME280;33815;48.386;11.738;2022-11-04T08:08:33;95755.84;;;6.48;100.00
48041;BME280;33815;48.386;11.738;2022-11-04T08:11:06;95753.44;;;6.37;100.00
48041;BME280;33815;48.386;11.738;2022-11-04T08:13:33;95759.09;;;6.50;100.00
48041;BME280;33815;48.386;11.738;2022-11-04T08:16:09;95748.66;;;6.42;100.00
48041;BME280;33815;48.386;11.738;2022-11-04T08:18:36;95741.09;;;6.30;100.00
48041;BME280;33815;48.386;11.738;2022-11-04T08:21:02;95736.22;;;6.27;100.00
48041;BME280;33815;48.386;11.738;2022-11-04T08:23:29;95725.28;;;6.33;100.00
48041;BME280;33815;48.386;11.738;2022-11-04T08:25:55;95718.56;;;6.41;100.00
48041;BME280;33815;48.386;11.738;2022-11-04T08:28:20;95729.75;;;6.41;100.00
48041;BME280;33815;48.386;11.738;2022-11-04T08:30:58;95713.38;;;6.41;100.00
48041;BME280;33815;48.386;11.738;2022-11-04T08:33:25;95704.97;;;6.39;100.00
48041;BME280;33815;48.386;11.738;2022-11-04T08:35:52;95709.84;;;6.42;100.00
48041;BME280;33815;48.386;11.738;2022-11-04T08:38:18;95705.19;;;6.45;100.00
48041;BME280;33815;48.386;11.738;2022-11-04T08:40:43;95691.56;;;6.43;100.00
48041;BME280;33815;48.386;11.738;2022-11-04T08:43:09;95680.41;;;6.43;100.00
48041;BME280;33815;48.386;11.738;2022-11-04T08:45:41;95689.13;;;6.42;100.00
48041;BME280;33815;48.386;11.738;2022-11-04T08:48:07;95694.47;;;6.40;100.00
48041;BME280;33815;48.386;11.738;2022-11-04T08:50:32;95698.44;;;6.34;100.00
48041;BME280;33815;48.386;11.738;2022-11-04T08:52:58;95692.00;;;6.39;100.00
48041;BME280;33815;48.386;11.738;2022-11-04T08:55:23;95700.13;;;6.44;100.00
48041;BME280;33815;48.386;11.738;2022-11-04T08:57:48;95682.16;;;6.24;100.00
48041;BME280;33815;48.386;11.738;2022-11-04T09:00:15;95704.66;;;6.42;100.00
48041;BME280;33815;48.386;11.738;2022-11-04T09:02:41;95702.97;;;6.50;100.00
48041;BME280;33815;48.386;11.738;2022-11-04T09:05:06;95687.56;;;6.49;100.00
48041;BME280;33815;48.386;11.738;2022-11-04T09:07:32;95667.97;;;6.46;100.00
48041;BME280;33815;48.386;11.738;2022-11-04T09:09:59;95685.38;;;6.54;100.00
48041;BME280;33815;48.386;11.738;2022-11-04T09:12:26;95686.63;;;6.50;100.00
48041;BME280;33815;48.386;11.738;2022-11-04T09:14:51;95692.19;;;6.55;100.00
48041;BME280;33815;48.386;11.738;2022-11-04T09:17:17;95694.31;;;6.60;100.00
48041;BME280;33815;48.386;11.738;2022-11-04T09:19:42;95684.06;;;6.68;100.00
48041;BME280;33815;48.386;11.738;2022-11-04T09:22:07;95670.56;;;6.82;100.00
48041;BME280;33815;48.386;11.738;2022-11-04T09:24:33;95670.94;;;6.88;100.00
48041;BME280;33815;48.386;11.738;2022-11-04T09:26:58;95669.84;;;6.90;100.00
48041;BME280;33815;48.386;11.738;2022-11-04T09:29:23;95660.59;;;6.88;100.00
48041;BME280;33815;48.386;11.738;2022-11-04T09:31:48;95659.97;;;6.76;100.00
48041;BME280;33815;48.386;11.738;2022-11-04T09:34:14;95665.38;;;6.82;100.00
48041;BME280;33815;48.386;11.738;2022-11-04T09:36:39;95663.03;;;6.89;100.00
48041;BME280;33815;48.386;11.738;2022-11-04T09:39:05;95661.00;;;6.83;100.00
48041;BME280;33815;48.386;11.738;2022-11-04T09:41:41;95656.44;;;6.77;100.00
48041;BME280;33815;48.386;11.738;2022-11-04T09:44:24;95649.31;;;6.79;100.00
48041;BME280;33815;48.386;11.738;2022-11-04T09:46:53;95655.03;;;6.82;100.00
48041;BME280;33815;48.386;11.738;2022-11-04T09:49:22;95660.44;;;6.89;100.00
48041;BME280;33815;48.386;11.738;2022-11-04T09:51:50;95660.75;;;6.86;100.00
48041;BME280;33815;48.386;11.738;2022-11-04T09:54:40;95670.13;;;6.87;100.00
48041;BME280;33815;48.386;11.738;2022-11-04T09:57:12;95673.97;;;6.83;100.00
48041;BME280;33815;48.386;11.738;2022-11-04T09:59:40;95673.69;;;6.86;100.00
48041;BME280;33815;48.386;11.738;2022-11-04T10:02:30;95673.81;;;6.84;100.00
48041;BME280;33815;48.386;11.738;2022-11-04T10:05:06;95670.63;;;6.91;100.00
48041;BME280;33815;48.386;11.738;2022-11-04T10:10:58;95671.28;;;7.11;100.00
48041;BME280;33815;48.386;11.738;2022-11-04T10:13:54;95666.72;;;7.31;100.00
48041;BME280;33815;48.386;11.738;2022-11-04T10:16:27;95671.28;;;7.37;100.00
48041;BME280;33815;48.386;11.738;2022-11-04T10:22:01;95643.94;;;7.43;100.00
48041;BME280;33815;48.386;11.738;2022-11-04T10:24:35;95655.72;;;7.63;100.00
48041;BME280;33815;48.386;11.738;2022-11-04T10:27:04;95661.50;;;7.57;100.00
48041;BME280;33815;48.386;11.738;2022-11-04T10:29:46;95659.84;;;7.48;100.00
48041;BME280;33815;48.386;11.738;2022-11-04T10:34:48;95661.19;;;7.52;100.00
48041;BME280;33815;48.386;11.738;2022-11-04T10:37:17;95663.41;;;7.47;100.00
48041;BME280;33815;48.386;11.738;2022-11-04T10:39:45;95654.69;;;7.48;100.00
48041;BME280;33815;48.386;11.738;2022-11-04T10:42:16;95651.47;;;7.54;100.00
48041;BME280;33815;48.386;11.738;2022-11-04T10:44:44;95641.94;;;7.63;100.00
48041;BME280;33815;48.386;11.738;2022-11-04T10:47:25;95632.94;;;7.83;100.00
48041;BME280;33815;48.386;11.738;2022-11-04T10:49:59;95628.25;;;7.79;100.00
48041;BME280;33815;48.386;11.738;2022-11-04T10:52:27;95629.06;;;7.87;100.00
48041;BME280;33815;48.386;11.738;2022-11-04T10:54:52;95620.00;;;7.92;100.00
48041;BME280;33815;48.386;11.738;2022-11-04T10:57:23;95611.13;;;8.02;100.00
48041;BME280;33815;48.386;11.738;2022-11-04T10:59:56;95617.28;;;8.01;100.00
48041;BME280;33815;48.386;11.738;2022-11-04T11:02:51;95619.41;;;8.06;100.00
48041;BME280;33815;48.386;11.738;2022-11-04T11:07:42;95623.13;;;8.12;100.00
48041;BME280;33815;48.386;11.738;2022-11-04T11:12:50;95623.13;;;8.12;100.00
48041;BME280;33815;48.386;11.738;2022-11-04T11:15:32;95614.03;;;8.07;100.00
48041;BME280;33815;48.386;11.738;2022-11-04T11:20:30;95612.28;;;8.08;100.00
48041;BME280;33815;48.386;11.738;2022-11-04T11:22:57;95626.09;;;8.17;100.00
48041;BME280;33815;48.386;11.738;2022-11-04T11:25:31;95624.16;;;8.35;100.00
48041;BME280;33815;48.386;11.738;2022-11-04T11:28:20;95622.66;;;8.16;100.00
48041;BME280;33815;48.386;11.738;2022-11-04T11:33:22;95633.50;;;8.03;100.00
48041;BME280;33815;48.386;11.738;2022-11-04T11:38:24;95646.63;;;8.02;100.00
48041;BME280;33815;48.386;11.738;2022-11-04T11:40:52;95642.88;;;7.96;100.00
48041;BME280;33815;48.386;11.738;2022-11-04T11:43:30;95634.06;;;7.81;100.00
48041;BME280;33815;48.386;11.738;2022-11-04T11:45:56;95635.66;;;7.74;100.00
48041;BME280;33815;48.386;11.738;2022-11-04T11:48:43;95635.50;;;7.75;100.00
48041;BME280;33815;48.386;11.738;2022-11-04T11:51:22;95634.19;;;7.71;100.00
48041;BME280;33815;48.386;11.738;2022-11-04T11:54:12;95642.13;;;7.69;100.00
48041;BME280;33815;48.386;11.738;2022-11-04T11:56:40;95649.16;;;7.77;100.00
48041;BME280;33815;48.386;11.738;2022-11-04T11:59:18;95650.47;;;7.81;100.00
48041;BME280;33815;48.386;11.738;2022-11-04T12:04:16;95623.50;;;7.66;100.00
48041;BME280;33815;48.386;11.738;2022-11-04T12:07:26;95622.34;;;7.68;100.00
48041;BME280;33815;48.386;11.738;2022-11-04T12:10:10;95618.75;;;7.61;100.00
48041;BME280;33815;48.386;11.738;2022-11-04T12:12:52;95629.31;;;7.68;100.00
48041;BME280;33815;48.386;11.738;2022-11-04T12:15:31;95640.38;;;7.78;100.00
48041;BME280;33815;48.386;11.738;2022-11-04T12:20:45;95638.88;;;7.67;100.00
48041;BME280;33815;48.386;11.738;2022-11-04T12:23:28;95630.94;;;7.69;100.00
48041;BME280;33815;48.386;11.738;2022-11-04T12:31:48;95639.97;;;7.91;100.00
48041;BME280;33815;48.386;11.738;2022-11-04T12:37:14;95642.56;;;7.99;100.00
48041;BME280;33815;48.386;11.738;2022-11-04T12:40:16;95652.16;;;8.07;100.00
48041;BME280;33815;48.386;11.738;2022-11-04T12:45:26;95641.88;;;7.89;100.00
48041;BME280;33815;48.386;11.738;2022-11-04T12:47:59;95634.41;;;7.86;100.00
48041;BME280;33815;48.386;11.738;2022-11-04T12:50:53;95626.97;;;7.83;100.00
48041;BME280;33815;48.386;11.738;2022-11-04T12:53:29;95636.84;;;7.87;100.00
48041;BME280;33815;48.386;11.738;2022-11-04T12:56:14;95647.06;;;7.89;100.00
48041;BME280;33815;48.386;11.738;2022-11-04T12:59:38;95655.06;;;7.96;100.00
48041;BME280;33815;48.386;11.738;2022-11-04T13:02:13;95673.09;;;8.05;100.00
48041;BME280;33815;48.386;11.738;2022-11-04T13:04:47;95691.28;;;8.14;100.00
48041;BME280;33815;48.386;11.738;2022-11-04T13:07:28;95682.75;;;7.87;100.00
48041;BME280;33815;48.386;11.738;2022-11-04T13:10:04;95690.81;;;7.84;100.00
48041;BME280;33815;48.386;11.738;2022-11-04T13:12:39;95698.19;;;7.97;100.00
48041;BME280;33815;48.386;11.738;2022-11-04T13:15:17;95697.66;;;7.85;100.00
48041;BME280;33815;48.386;11.738;2022-11-04T13:17:45;95695.53;;;7.80;100.00
48041;BME280;33815;48.386;11.738;2022-11-04T13:20:24;95695.22;;;7.83;100.00
48041;BME280;33815;48.386;11.738;2022-11-04T13:22:52;95685.16;;;7.80;100.00
48041;BME280;33815;48.386;11.738;2022-11-04T13:25:29;95686.75;;;7.73;100.00
48041;BME280;33815;48.386;11.738;2022-11-04T13:27:55;95692.78;;;7.82;100.00
48041;BME280;33815;48.386;11.738;2022-11-04T13:30:42;95685.94;;;7.81;100.00
48041;BME280;33815;48.386;11.738;2022-11-04T13:36:21;95686.56;;;7.75;100.00
48041;BME280;33815;48.386;11.738;2022-11-04T13:39:07;95668.69;;;7.63;100.00
48041;BME280;33815;48.386;11.738;2022-11-04T13:44:29;95688.50;;;7.72;100.00
48041;BME280;33815;48.386;11.738;2022-11-04T13:47:02;95694.16;;;7.68;100.00
48041;BME280;33815;48.386;11.738;2022-11-04T13:49:30;95696.28;;;7.72;100.00
48041;BME280;33815;48.386;11.738;2022-11-04T13:52:04;95699.50;;;7.66;100.00
48041;BME280;33815;48.386;11.738;2022-11-04T13:57:29;95691.56;;;7.68;100.00
48041;BME280;33815;48.386;11.738;2022-11-04T14:18:28;95694.88;;;7.52;100.00
48041;BME280;33815;48.386;11.738;2022-11-04T14:21:23;95696.66;;;7.51;100.00
48041;BME280;33815;48.386;11.738;2022-11-04T14:23:59;95691.47;;;7.51;100.00
48041;BME280;33815;48.386;11.738;2022-11-04T14:26:27;95694.25;;;7.58;100.00
48041;BME280;33815;48.386;11.738;2022-11-04T14:29:29;95699.19;;;7.69;100.00
48041;BME280;33815;48.386;11.738;2022-11-04T14:31:55;95700.81;;;7.70;100.00
48041;BME280;33815;48.386;11.738;2022-11-04T14:34:30;95698.75;;;7.48;100.00
48041;BME280;33815;48.386;11.738;2022-11-04T14:37:18;95704.84;;;7.38;100.00